Time;durP1;ratioP1;P1;durP2;ratioP2;P2;SDS_P1;SDS_P2;PMS_P1;PMS_P2;Temp;Humidity;BMP_temperature;BMP_pressure;BME280_temperature;BME280_humidity;BME280_pressure;Samples;Min_cycle;Max_cycle;Signal;HPM_P1;HPM_P2
2023/02/26 00:01:13;;;;;;;1.75;1.50;;;0.20;99.90;;;;;;4986652;28;20211;-70
2023/02/26 00:03:41;;;;;;;1.90;1.52;;;0.20;99.90;;;;;;4986017;28;20207;-70
2023/02/26 00:06:08;;;;;;;2.55;1.40;;;0.20;99.90;;;;;;4986133;28;20210;-69
2023/02/26 00:08:35;;;;;;;2.35;1.85;;;0.20;99.90;;;;;;4985738;28;20248;-70
2023/02/26 00:11:05;;;;;;;1.55;1.15;;;0.20;99.90;;;;;;4986457;28;20310;-69
2023/02/26 00:13:33;;;;;;;2.72;1.83;;;0.20;99.90;;;;;;4966567;28;20586;-69
2023/02/26 00:16:01;;;;;;;1.45;1.35;;;0.20;99.90;;;;;;4966948;28;20223;-71
2023/02/26 00:18:28;;;;;;;1.33;1.23;;;0.10;99.90;;;;;;4966908;28;20216;-70
2023/02/26 00:20:57;;;;;;;2.97;2.05;;;0.00;99.90;;;;;;4966883;28;20208;-69
2023/02/26 00:23:24;;;;;;;1.50;1.40;;;0.00;99.90;;;;;;4967385;28;20219;-69
2023/02/26 00:25:51;;;;;;;2.28;1.73;;;-0.10;99.90;;;;;;4968181;28;20211;-70
2023/02/26 00:28:18;;;;;;;2.58;2.38;;;-0.20;99.90;;;;;;4986497;28;20313;-69
2023/02/26 00:30:45;;;;;;;2.70;1.80;;;-0.20;99.90;;;;;;4987046;28;20215;-69
2023/02/26 00:33:12;;;;;;;2.17;1.88;;;-0.20;99.90;;;;;;4986979;28;20214;-69
2023/02/26 00:35:40;;;;;;;1.98;1.30;;;-0.30;99.90;;;;;;4986568;28;20200;-69
2023/02/26 00:38:10;;;;;;;2.50;1.80;;;-0.30;99.90;;;;;;4986334;28;20231;-69
2023/02/26 00:40:41;;;;;;;1.95;1.35;;;-0.30;99.90;;;;;;4985169;28;20207;-70
2023/02/26 00:43:13;;;;;;;1.77;1.67;;;-0.30;99.90;;;;;;4984705;28;20256;-70
2023/02/26 00:45:47;;;;;;;1.48;1.38;;;-0.40;99.90;;;;;;4985045;28;20206;-69
2023/02/26 00:48:28;;;;;;;2.65;1.27;;;-0.40;99.90;;;;;;4985173;28;20227;-69
2023/02/26 00:50:59;;;;;;;2.20;1.80;;;-0.50;99.90;;;;;;4985427;28;20203;-69
2023/02/26 00:53:32;;;;;;;1.50;1.30;;;-0.50;99.90;;;;;;4984435;28;20580;-70
2023/02/26 00:55:58;;;;;;;1.98;1.45;;;-0.50;99.90;;;;;;4985543;28;20212;-70
2023/02/26 00:58:25;;;;;;;2.17;1.95;;;-0.60;99.90;;;;;;4985271;28;20227;-70
2023/02/26 01:00:52;;;;;;;2.17;1.60;;;-0.50;99.90;;;;;;4985076;28;20211;-69
2023/02/26 01:03:19;;;;;;;2.25;1.80;;;-0.50;99.90;;;;;;4984675;28;20221;-70
2023/02/26 01:05:46;;;;;;;1.35;1.25;;;-0.60;99.90;;;;;;4985606;28;20605;-70
2023/02/26 01:08:19;;;;;;;3.25;1.88;;;-0.60;99.90;;;;;;4985648;28;20223;-69
2023/02/26 01:10:48;;;;;;;3.35;1.42;;;-0.70;99.90;;;;;;4985379;28;20199;-69
2023/02/26 01:13:14;;;;;;;1.77;1.30;;;-0.70;99.90;;;;;;4983214;28;20207;-69
2023/02/26 01:15:47;;;;;;;1.95;1.85;;;-0.70;99.90;;;;;;4985399;28;20729;-69
2023/02/26 01:18:18;;;;;;;2.08;1.45;;;-0.70;99.90;;;;;;4986284;28;20257;-70
2023/02/26 01:20:49;;;;;;;5.60;1.23;;;-0.70;99.90;;;;;;4989215;28;20207;-70
2023/02/26 01:23:19;;;;;;;1.52;1.42;;;-0.60;99.90;;;;;;4988486;28;20227;-70
2023/02/26 01:25:50;;;;;;;1.70;1.30;;;-0.70;99.90;;;;;;4988795;28;20512;-69
2023/02/26 01:28:17;;;;;;;2.35;1.75;;;-0.70;99.90;;;;;;4989081;28;20234;-69
2023/02/26 01:30:44;;;;;;;1.80;1.70;;;-0.70;99.90;;;;;;4988803;28;20577;-69
2023/02/26 01:33:18;;;;;;;2.17;1.50;;;-0.80;99.90;;;;;;4987980;28;20710;-69
2023/02/26 01:35:50;;;;;;;2.00;1.65;;;-0.80;99.90;;;;;;4988554;28;20211;-69
2023/02/26 01:38:27;;;;;;;1.40;1.30;;;-0.90;99.90;;;;;;4989070;28;20658;-69
2023/02/26 01:41:23;;;;;;;1.85;1.60;;;-0.90;99.90;;;;;;4988581;28;20214;-70
2023/02/26 01:44:00;;;;;;;1.83;1.50;;;-0.90;99.90;;;;;;4981149;28;20604;-70
2023/02/26 01:46:32;;;;;;;2.72;1.60;;;-1.00;99.90;;;;;;4990679;28;20211;-70
2023/02/26 01:49:00;;;;;;;2.05;1.50;;;-1.00;99.90;;;;;;4991018;28;20203;-70
2023/02/26 01:51:49;;;;;;;1.23;1.13;;;-1.10;99.90;;;;;;4990517;28;20674;-70
2023/02/26 01:54:17;;;;;;;1.70;1.58;;;-1.20;99.90;;;;;;4988326;28;20199;-70
2023/02/26 01:56:49;;;;;;;2.20;2.00;;;-1.20;99.90;;;;;;4990600;28;20642;-70
2023/02/26 01:59:23;;;;;;;3.30;1.73;;;-1.20;99.90;;;;;;4991909;28;20281;-70
2023/02/26 02:01:53;;;;;;;1.58;1.48;;;-1.20;99.90;;;;;;4995157;28;20227;-69
2023/02/26 02:04:20;;;;;;;2.13;1.60;;;-1.30;99.90;;;;;;4994979;28;20200;-69
2023/02/26 02:06:47;;;;;;;3.10;1.58;;;-1.30;99.90;;;;;;4995147;28;20219;-70
2023/02/26 02:09:14;;;;;;;1.80;1.70;;;-1.40;99.90;;;;;;5000492;28;20274;-70
2023/02/26 02:11:57;;;;;;;3.10;1.70;;;-1.40;99.90;;;;;;5000521;28;20200;-70
2023/02/26 02:14:33;;;;;;;2.45;1.40;;;-1.40;99.90;;;;;;5002705;28;20234;-70
2023/02/26 02:17:08;;;;;;;2.00;1.80;;;-1.40;99.90;;;;;;4993748;28;20233;-69
2023/02/26 02:20:09;;;;;;;1.70;1.60;;;-1.40;99.90;;;;;;4993258;28;20203;-70
2023/02/26 02:22:54;;;;;;;2.08;1.48;;;-1.40;99.90;;;;;;4968624;28;20203;-70
2023/02/26 02:25:40;;;;;;;1.80;1.40;;;-1.40;99.90;;;;;;4991863;28;20203;-70
2023/02/26 02:28:19;;;;;;;1.55;1.45;;;-1.40;99.90;;;;;;4993114;28;20611;-70
2023/02/26 02:30:58;;;;;;;1.65;1.40;;;-1.40;99.90;;;;;;4993682;28;20617;-70
2023/02/26 02:33:32;;;;;;;1.50;1.40;;;-1.50;99.90;;;;;;4991102;28;20210;-70
2023/02/26 02:36:04;;;;;;;1.60;1.38;;;-1.60;99.90;;;;;;4991873;28;20218;-70
2023/02/26 02:38:35;;;;;;;1.70;1.35;;;-1.60;99.90;;;;;;4991946;28;20238;-70
2023/02/26 02:41:07;;;;;;;1.60;1.33;;;-1.60;99.90;;;;;;4991490;28;20222;-70
2023/02/26 02:43:35;;;;;;;3.05;1.70;;;-1.60;99.90;;;;;;4990602;28;20203;-70
2023/02/26 02:46:05;;;;;;;1.88;1.60;;;-1.70;99.90;;;;;;4990199;28;20208;-69
2023/02/26 02:48:35;;;;;;;1.90;1.60;;;-1.70;99.90;;;;;;4990346;28;20694;-70
2023/02/26 02:51:05;;;;;;;1.42;1.25;;;-1.70;99.90;;;;;;4990140;28;20203;-70
2023/02/26 02:53:37;;;;;;;5.78;1.67;;;-1.70;99.90;;;;;;4989221;28;20202;-70
2023/02/26 02:56:08;;;;;;;1.20;1.10;;;-1.70;99.90;;;;;;4990391;28;20203;-70
2023/02/26 02:58:42;;;;;;;2.85;1.63;;;-1.80;99.90;;;;;;4989648;28;20219;-70
2023/02/26 03:01:14;;;;;;;2.88;1.40;;;-1.80;99.90;;;;;;4990064;28;20207;-69
2023/02/26 03:03:50;;;;;;;1.80;1.60;;;-1.90;99.90;;;;;;4981977;28;20204;-69
2023/02/26 03:06:16;;;;;;;2.10;1.42;;;-1.90;99.90;;;;;;4989663;28;20208;-69
2023/02/26 03:08:45;;;;;;;2.35;1.88;;;-1.90;99.90;;;;;;4989437;28;20222;-70
2023/02/26 03:11:11;;;;;;;2.95;1.42;;;-1.90;99.90;;;;;;4989958;28;20289;-70
2023/02/26 03:13:40;;;;;;;2.20;1.40;;;-1.90;99.90;;;;;;4981210;28;20684;-70
2023/02/26 03:16:24;;;;;;;1.98;1.52;;;-2.00;99.90;;;;;;4989771;28;20693;-70
2023/02/26 03:18:57;;;;;;;1.80;1.40;;;-2.00;99.90;;;;;;4989502;28;20223;-70
2023/02/26 03:21:31;;;;;;;2.42;1.60;;;-2.10;99.90;;;;;;4989616;28;20234;-70
2023/02/26 03:24:04;;;;;;;3.00;1.40;;;-2.00;99.90;;;;;;4989132;28;20598;-70
2023/02/26 03:26:39;;;;;;;2.40;1.63;;;-2.00;99.90;;;;;;4989206;28;20203;-70
2023/02/26 03:29:13;;;;;;;1.50;1.40;;;-2.00;99.90;;;;;;4989664;28;20203;-70
2023/02/26 03:31:51;;;;;;;2.80;1.15;;;-2.00;99.90;;;;;;4981570;28;20205;-70
2023/02/26 03:34:23;;;;;;;3.90;1.50;;;-2.00;99.90;;;;;;4988827;28;20211;-70
2023/02/26 03:36:57;;;;;;;2.72;1.52;;;-2.10;99.90;;;;;;4988982;28;20739;-70
2023/02/26 03:39:28;;;;;;;2.38;1.50;;;-2.10;99.90;;;;;;4989243;28;20223;-70
2023/02/26 03:42:01;;;;;;;5.03;1.88;;;-2.10;99.90;;;;;;4989225;28;20211;-70
2023/02/26 03:44:32;;;;;;;2.08;1.88;;;-2.20;99.90;;;;;;4988809;28;20659;-69
2023/02/26 03:47:05;;;;;;;1.70;1.60;;;-2.20;99.90;;;;;;4989026;28;20234;-69
2023/02/26 03:49:36;;;;;;;1.65;1.40;;;-2.20;99.90;;;;;;4989020;28;20203;-69
2023/02/26 03:52:04;;;;;;;8.80;1.77;;;-2.10;99.90;;;;;;4988964;28;20582;-69
2023/02/26 03:54:34;;;;;;;1.52;1.40;;;-2.10;99.90;;;;;;4988565;28;20207;-69
2023/02/26 03:57:01;;;;;;;2.55;1.35;;;-2.20;99.90;;;;;;4989006;28;20230;-70
2023/02/26 03:59:27;;;;;;;4.60;1.60;;;-2.10;99.90;;;;;;4989016;28;20230;-70
2023/02/26 04:01:59;;;;;;;1.65;1.48;;;-2.20;99.90;;;;;;4988800;28;20285;-70
2023/02/26 04:04:31;;;;;;;1.50;1.40;;;-2.20;99.90;;;;;;4988686;28;20218;-70
2023/02/26 04:06:58;;;;;;;3.13;1.48;;;-2.20;99.90;;;;;;4988678;28;20227;-70
2023/02/26 04:09:25;;;;;;;1.35;1.25;;;-2.20;99.90;;;;;;4988684;28;20196;-70
2023/02/26 04:11:54;;;;;;;2.50;1.60;;;-2.20;99.90;;;;;;4988541;28;20199;-69
2023/02/26 04:14:21;;;;;;;2.33;1.50;;;-2.20;99.90;;;;;;4988180;28;20207;-70
2023/02/26 04:16:48;;;;;;;1.15;1.05;;;-2.20;99.90;;;;;;4988588;28;20230;-70
2023/02/26 04:19:14;;;;;;;2.40;1.20;;;-2.30;99.90;;;;;;4988722;28;20227;-70
2023/02/26 04:21:42;;;;;;;2.28;1.92;;;-2.30;99.90;;;;;;4988254;28;20620;-70
2023/02/26 04:24:09;;;;;;;1.77;1.05;;;-2.30;99.90;;;;;;4988150;28;20204;-70
2023/02/26 04:26:36;;;;;;;2.30;2.10;;;-2.40;99.90;;;;;;4988357;28;20211;-70
2023/02/26 04:29:03;;;;;;;5.15;2.00;;;-2.30;99.90;;;;;;4988717;28;20195;-70
2023/02/26 04:31:29;;;;;;;1.60;1.50;;;-2.40;99.90;;;;;;4988504;28;20203;-69
2023/02/26 04:33:56;;;;;;;2.30;1.45;;;-2.40;99.90;;;;;;4987983;28;20199;-70
2023/02/26 04:36:23;;;;;;;1.65;1.52;;;-2.40;99.90;;;;;;4988428;28;20686;-71
2023/02/26 04:38:51;;;;;;;1.60;1.30;;;-2.50;99.90;;;;;;4988896;28;20219;-70
2023/02/26 04:41:18;;;;;;;2.42;1.83;;;-2.50;99.90;;;;;;4988574;28;20210;-70
2023/02/26 04:43:44;;;;;;;2.20;1.65;;;-2.50;99.90;;;;;;4987896;28;20210;-70
2023/02/26 04:46:11;;;;;;;3.35;1.65;;;-2.40;99.90;;;;;;4988539;28;20211;-70
2023/02/26 04:48:38;;;;;;;6.03;1.48;;;-2.50;99.90;;;;;;4988074;28;20216;-70
2023/02/26 04:51:05;;;;;;;2.85;1.23;;;-2.50;99.90;;;;;;4988126;28;20582;-70
2023/02/26 04:53:32;;;;;;;2.35;1.55;;;-2.50;99.90;;;;;;4987165;28;20200;-71
2023/02/26 04:56:00;;;;;;;2.28;1.23;;;-2.60;99.90;;;;;;4988494;28;20690;-70
2023/02/26 04:58:27;;;;;;;1.45;1.02;;;-2.70;99.90;;;;;;4988693;28;20239;-70
2023/02/26 05:00:54;;;;;;;1.75;1.50;;;-2.60;99.90;;;;;;4988776;28;20207;-70
2023/02/26 05:03:21;;;;;;;2.00;1.80;;;-2.60;99.90;;;;;;4987933;28;20577;-70
2023/02/26 05:05:48;;;;;;;1.88;1.65;;;-2.60;99.90;;;;;;4988015;28;20199;-70
2023/02/26 05:08:14;;;;;;;1.60;1.45;;;-2.60;99.90;;;;;;4988199;28;20227;-71
2023/02/26 05:10:41;;;;;;;2.03;1.48;;;-2.60;99.90;;;;;;4987782;28;20335;-70
2023/02/26 05:13:09;;;;;;;1.50;1.40;;;-2.60;99.90;;;;;;4987545;28;20697;-71
2023/02/26 05:15:36;;;;;;;3.00;1.73;;;-2.60;99.90;;;;;;4987865;28;20208;-70
2023/02/26 05:18:03;;;;;;;2.72;1.45;;;-2.70;99.90;;;;;;4980708;28;20219;-70
2023/02/26 05:20:30;;;;;;;2.20;1.25;;;-2.60;99.90;;;;;;4987769;28;20226;-70
2023/02/26 05:22:57;;;;;;;1.60;1.40;;;-2.60;99.90;;;;;;4987417;28;20215;-70
2023/02/26 05:25:24;;;;;;;2.75;1.63;;;-2.60;99.90;;;;;;4987701;28;20705;-70
2023/02/26 05:27:50;;;;;;;1.85;1.52;;;-2.60;99.90;;;;;;4987500;28;20223;-71
2023/02/26 05:30:18;;;;;;;2.17;1.77;;;-2.70;99.90;;;;;;4987883;28;20662;-70
2023/02/26 05:32:45;;;;;;;4.80;2.20;;;-2.70;99.90;;;;;;4986834;28;20204;-70
2023/02/26 05:35:12;;;;;;;1.95;1.42;;;-2.70;99.90;;;;;;4987889;28;20214;-70
2023/02/26 05:37:39;;;;;;;4.75;1.83;;;-2.70;99.90;;;;;;4987032;28;20301;-70
2023/02/26 05:40:09;;;;;;;2.60;1.63;;;-2.80;99.90;;;;;;4987603;28;20200;-70
2023/02/26 05:42:36;;;;;;;2.25;2.05;;;-2.80;99.90;;;;;;4987275;28;20215;-69
2023/02/26 05:45:04;;;;;;;2.95;1.58;;;-2.80;99.90;;;;;;4987763;28;20206;-70
2023/02/26 05:47:33;;;;;;;1.48;1.35;;;-2.80;99.90;;;;;;4986129;28;20223;-70
2023/02/26 05:50:00;;;;;;;1.25;1.10;;;-2.80;99.90;;;;;;4987300;28;20207;-68
2023/02/26 05:52:27;;;;;;;3.45;2.38;;;-2.90;99.90;;;;;;4986644;28;20230;-68
2023/02/26 05:54:54;;;;;;;1.73;1.50;;;-2.90;99.90;;;;;;4985847;28;20199;-70
2023/02/26 05:57:21;;;;;;;1.70;1.60;;;-2.90;99.90;;;;;;4986408;28;20654;-70
2023/02/26 05:59:48;;;;;;;2.35;1.60;;;-2.90;99.90;;;;;;4986373;28;20298;-67
2023/02/26 06:02:15;;;;;;;1.80;1.60;;;-2.90;99.90;;;;;;4986534;28;20210;-70
2023/02/26 06:04:43;;;;;;;3.20;1.70;;;-2.90;99.90;;;;;;4986938;28;20569;-70
2023/02/26 06:07:10;;;;;;;2.50;2.03;;;-2.90;99.90;;;;;;4990731;28;20227;-70
2023/02/26 06:09:37;;;;;;;3.00;1.40;;;-2.90;99.90;;;;;;4989557;28;20666;-71
2023/02/26 06:12:04;;;;;;;5.15;1.50;;;-3.00;99.90;;;;;;4990214;28;20229;-70
2023/02/26 06:14:30;;;;;;;3.80;1.92;;;-3.00;99.90;;;;;;4989981;28;20221;-68
2023/02/26 06:16:57;;;;;;;4.32;1.45;;;-3.00;99.90;;;;;;4990666;28;20234;-69
2023/02/26 06:19:24;;;;;;;2.20;1.70;;;-3.00;99.90;;;;;;4987436;28;20234;-70
2023/02/26 06:21:52;;;;;;;1.50;1.25;;;-3.00;99.90;;;;;;4991615;28;20208;-70
2023/02/26 06:24:19;;;;;;;7.72;1.45;;;-2.90;99.90;;;;;;4988522;28;20662;-70
2023/02/26 06:26:45;;;;;;;5.72;1.90;;;-2.80;99.90;;;;;;4990255;28;20222;-71
2023/02/26 06:29:12;;;;;;;1.60;1.50;;;-2.80;99.90;;;;;;4990093;28;20199;-70
2023/02/26 06:31:39;;;;;;;2.70;2.13;;;-2.70;99.90;;;;;;4989266;28;20196;-70
2023/02/26 06:34:05;;;;;;;1.90;1.73;;;-2.70;99.90;;;;;;4989581;28;20206;-70
2023/02/26 06:36:32;;;;;;;1.17;1.08;;;-2.70;99.90;;;;;;4989705;28;20210;-70
2023/02/26 06:39:00;;;;;;;1.48;1.38;;;-2.50;99.90;;;;;;4990145;28;20227;-70
2023/02/26 06:41:27;;;;;;;1.58;1.48;;;-2.50;99.90;;;;;;4988596;28;20207;-70
2023/02/26 06:43:54;;;;;;;2.00;1.67;;;-2.40;99.90;;;;;;4989081;28;20278;-69
2023/02/26 06:46:20;;;;;;;2.10;1.60;;;-2.40;99.90;;;;;;4989756;28;20222;-69
2023/02/26 06:48:47;;;;;;;2.38;1.55;;;-2.40;99.90;;;;;;4989110;28;20200;-69
2023/02/26 06:51:14;;;;;;;1.80;1.50;;;-2.40;99.90;;;;;;4989462;28;20210;-69
2023/02/26 06:53:40;;;;;;;2.70;2.10;;;-2.30;99.90;;;;;;4987495;28;20681;-69
2023/02/26 06:56:09;;;;;;;1.90;1.38;;;-2.10;99.90;;;;;;4989549;28;20226;-69
2023/02/26 06:58:35;;;;;;;2.05;1.45;;;-2.00;99.90;;;;;;4986815;28;20241;-69
2023/02/26 07:01:03;;;;;;;2.38;1.48;;;-1.90;99.90;;;;;;4989254;28;20256;-69
2023/02/26 07:03:30;;;;;;;1.90;1.80;;;-1.90;99.90;;;;;;4988493;28;20279;-70
2023/02/26 07:05:57;;;;;;;1.73;1.60;;;-1.90;99.90;;;;;;4989031;28;20328;-70
2023/02/26 07:08:24;;;;;;;2.85;1.63;;;-2.00;99.90;;;;;;4988412;28;20223;-70
2023/02/26 07:10:50;;;;;;;1.40;1.30;;;-2.00;99.90;;;;;;4988632;28;20207;-70
2023/02/26 07:13:19;;;;;;;4.00;1.50;;;-2.10;99.90;;;;;;4988968;28;20199;-70
2023/02/26 07:15:45;;;;;;;4.18;2.53;;;-2.10;99.90;;;;;;4988082;28;20196;-70
2023/02/26 07:18:12;;;;;;;3.95;2.00;;;-2.10;99.90;;;;;;4989492;28;20228;-70
2023/02/26 07:20:39;;;;;;;3.53;3.05;;;-2.00;99.90;;;;;;4988629;28;20226;-71
2023/02/26 07:23:05;;;;;;;2.20;2.00;;;-2.00;99.90;;;;;;4989155;28;20666;-70
2023/02/26 07:25:32;;;;;;;3.28;2.20;;;-2.00;99.90;;;;;;4989929;28;20211;-69
2023/02/26 07:27:59;;;;;;;11.07;6.72;;;-1.90;99.90;;;;;;4990333;28;20246;-69
2023/02/26 07:30:27;;;;;;;6.63;4.18;;;-1.70;99.90;;;;;;4990275;28;20592;-69
2023/02/26 07:32:53;;;;;;;3.30;2.63;;;-1.50;99.90;;;;;;4981156;28;20207;-69
2023/02/26 07:35:20;;;;;;;2.70;2.00;;;-1.20;99.90;;;;;;4989858;28;20696;-69
2023/02/26 07:37:47;;;;;;;3.55;2.50;;;-0.90;99.90;;;;;;4989724;28;20227;-69
2023/02/26 07:40:14;;;;;;;3.10;2.75;;;-0.60;99.90;;;;;;4989666;28;20219;-69
2023/02/26 07:42:41;;;;;;;5.28;2.45;;;-0.40;99.90;;;;;;4988772;28;20233;-69
2023/02/26 07:45:09;;;;;;;2.08;1.85;;;-0.10;99.90;;;;;;4989454;28;20239;-69
2023/02/26 07:47:37;;;;;;;2.08;1.88;;;0.10;99.90;;;;;;4989039;28;20222;-69
2023/02/26 07:50:05;;;;;;;2.60;1.77;;;0.80;99.90;;;;;;4990045;28;20386;-69
2023/02/26 07:52:32;;;;;;;4.22;2.78;;;2.10;99.90;;;;;;4988845;28;20670;-70
2023/02/26 07:54:59;;;;;;;2.45;1.90;;;3.60;99.90;;;;;;4988728;28;20204;-67
2023/02/26 07:57:25;;;;;;;3.05;1.67;;;4.70;99.90;;;;;;4988601;28;20219;-70
2023/02/26 07:59:52;;;;;;;2.10;1.58;;;5.50;99.90;;;;;;4988319;28;20234;-70
2023/02/26 08:02:19;;;;;;;2.75;2.20;;;4.70;99.30;;;;;;4988689;28;20207;-69
2023/02/26 08:04:47;;;;;;;2.67;2.47;;;3.80;99.90;;;;;;4988582;28;20210;-69
2023/02/26 08:07:14;;;;;;;3.78;2.03;;;3.20;99.90;;;;;;4989250;28;20223;-69
2023/02/26 08:09:40;;;;;;;2.05;1.60;;;2.60;99.90;;;;;;4988921;28;20199;-69
2023/02/26 08:12:07;;;;;;;2.28;1.80;;;2.00;99.90;;;;;;4987524;28;20689;-69
2023/02/26 08:14:34;;;;;;;3.55;1.33;;;1.40;99.90;;;;;;4988463;28;20207;-69
2023/02/26 08:17:00;;;;;;;1.95;1.85;;;0.90;99.90;;;;;;4988261;28;20223;-69
2023/02/26 08:19:27;;;;;;;1.70;1.45;;;0.40;99.90;;;;;;4988067;28;20226;-69
2023/02/26 08:21:56;;;;;;;1.75;1.30;;;0.30;99.90;;;;;;4982069;28;20293;-69
2023/02/26 08:24:23;;;;;;;1.73;1.45;;;0.60;99.90;;;;;;4987939;28;20268;-69
2023/02/26 08:26:49;;;;;;;2.85;1.20;;;0.70;99.90;;;;;;4987491;28;20219;-69
2023/02/26 08:29:16;;;;;;;4.13;1.55;;;0.70;99.90;;;;;;4986427;28;20215;-69
2023/02/26 08:31:43;;;;;;;2.60;1.52;;;1.10;99.90;;;;;;4986681;28;20223;-69
2023/02/26 08:34:10;;;;;;;5.00;1.40;;;1.80;99.90;;;;;;4986862;28;20211;-69
2023/02/26 08:36:37;;;;;;;3.35;2.03;;;2.70;99.90;;;;;;4987058;28;20720;-69
2023/02/26 08:39:06;;;;;;;2.42;1.60;;;4.30;99.90;;;;;;4980945;28;20250;-69
2023/02/26 08:41:35;;;;;;;1.55;1.45;;;4.80;99.90;;;;;;4985514;28;20239;-69
2023/02/26 08:44:02;;;;;;;2.20;1.27;;;4.60;99.90;;;;;;4985943;28;20214;-69
2023/02/26 08:46:29;;;;;;;2.42;1.75;;;4.10;99.90;;;;;;4985952;28;20210;-69
2023/02/26 08:48:57;;;;;;;2.08;1.20;;;3.90;99.90;;;;;;4986885;28;20586;-69
2023/02/26 08:51:24;;;;;;;2.45;1.33;;;3.80;99.90;;;;;;4987304;28;20772;-69
2023/02/26 08:53:51;;;;;;;2.10;1.35;;;3.70;99.90;;;;;;4985217;28;20207;-69
2023/02/26 08:56:19;;;;;;;1.30;1.20;;;3.40;99.90;;;;;;4986638;28;20203;-69
2023/02/26 08:58:45;;;;;;;1.40;1.30;;;2.90;99.90;;;;;;4985385;28;20223;-69
2023/02/26 09:01:13;;;;;;;3.03;1.73;;;2.20;99.90;;;;;;4986089;28;20207;-69
2023/02/26 09:03:40;;;;;;;1.40;1.23;;;1.70;99.90;;;;;;4985993;28;20555;-69
2023/02/26 09:06:07;;;;;;;1.63;1.50;;;1.20;99.90;;;;;;4986238;28;20207;-69
2023/02/26 09:08:33;;;;;;;2.95;1.48;;;1.00;99.90;;;;;;4985949;28;20231;-69
2023/02/26 09:11:01;;;;;;;2.15;1.48;;;0.80;99.90;;;;;;4978790;28;20203;-69
2023/02/26 09:13:29;;;;;;;1.80;1.50;;;0.60;99.90;;;;;;4986717;28;20234;-69
2023/02/26 09:15:56;;;;;;;1.50;1.40;;;0.40;99.90;;;;;;4985564;28;20615;-69
2023/02/26 09:18:23;;;;;;;2.08;1.50;;;0.30;99.90;;;;;;4986291;28;20231;-69
2023/02/26 09:20:50;;;;;;;1.42;1.33;;;0.30;99.90;;;;;;4985365;28;20222;-69
2023/02/26 09:23:17;;;;;;;2.45;1.20;;;0.30;99.90;;;;;;4979898;28;20203;-69
2023/02/26 09:25:43;;;;;;;1.20;1.10;;;0.30;99.90;;;;;;4986097;28;20211;-69
2023/02/26 09:28:10;;;;;;;2.33;2.08;;;0.30;99.90;;;;;;4986293;28;20230;-69
2023/02/26 09:30:38;;;;;;;3.20;2.00;;;0.20;99.90;;;;;;4986470;28;20697;-69
2023/02/26 09:33:05;;;;;;;1.25;1.15;;;0.20;99.90;;;;;;4985538;28;20207;-69
2023/02/26 09:35:32;;;;;;;1.55;1.30;;;0.10;99.90;;;;;;4986686;28;20203;-69
2023/02/26 09:37:58;;;;;;;1.92;1.77;;;0.10;99.90;;;;;;4985352;28;20230;-69
2023/02/26 09:40:37;;;;;;;2.75;1.55;;;0.10;99.90;;;;;;4988974;28;20219;-69
2023/02/26 09:43:15;;;;;;;1.08;0.98;;;0.00;99.90;;;;;;4981213;28;20517;-69
2023/02/26 09:45:46;;;;;;;2.55;1.40;;;-0.10;99.90;;;;;;4986901;28;20286;-70
2023/02/26 09:48:18;;;;;;;1.30;1.20;;;-0.20;99.90;;;;;;4989514;28;20234;-69
2023/02/26 09:50:48;;;;;;;1.50;1.40;;;-0.20;99.90;;;;;;4989097;28;20215;-69
2023/02/26 09:53:20;;;;;;;1.67;1.50;;;-0.20;99.90;;;;;;4988231;28;20211;-70
2023/02/26 09:55:49;;;;;;;2.38;1.40;;;-0.10;99.90;;;;;;4988572;28;20211;-70
2023/02/26 09:58:21;;;;;;;1.95;1.23;;;0.00;99.90;;;;;;4989330;28;20230;-70
2023/02/26 10:00:56;;;;;;;1.60;1.50;;;0.00;99.90;;;;;;4988124;28;20223;-70
2023/02/26 10:03:30;;;;;;;1.40;1.30;;;-0.10;99.90;;;;;;4987876;28;20215;-68
2023/02/26 10:06:18;;;;;;;3.33;1.70;;;-0.20;99.90;;;;;;4988344;28;20263;-68
2023/02/26 10:08:51;;;;;;;1.70;1.30;;;-0.20;99.90;;;;;;4980634;28;20300;-68
2023/02/26 10:11:26;;;;;;;1.55;1.15;;;-0.10;99.90;;;;;;4990615;28;20253;-68
2023/02/26 10:13:58;;;;;;;1.00;0.88;;;-0.10;99.90;;;;;;4989317;28;20249;-67
2023/02/26 10:16:29;;;;;;;2.17;1.40;;;-0.10;99.90;;;;;;4989444;28;20218;-68
2023/02/26 10:19:03;;;;;;;3.00;1.77;;;-0.10;99.90;;;;;;4989237;28;20215;-70
2023/02/26 10:21:34;;;;;;;1.42;1.17;;;-0.10;99.90;;;;;;4990410;28;20219;-69
2023/02/26 10:24:07;;;;;;;1.90;1.70;;;-0.10;99.90;;;;;;4989504;28;20207;-70
2023/02/26 10:26:39;;;;;;;3.90;2.28;;;-0.20;99.90;;;;;;4981604;28;20226;-68
2023/02/26 10:29:17;;;;;;;2.42;1.92;;;-0.20;99.90;;;;;;4976219;28;20214;-69
2023/02/26 10:31:57;;;;;;;2.63;1.90;;;-0.20;99.90;;;;;;4981505;28;20576;-69
2023/02/26 10:34:31;;;;;;;1.40;1.30;;;-0.30;99.90;;;;;;4988907;28;20214;-70
2023/02/26 10:37:04;;;;;;;2.67;1.50;;;-0.30;99.90;;;;;;4988708;28;20238;-69
2023/02/26 10:39:34;;;;;;;3.08;1.80;;;-0.30;99.90;;;;;;5007946;28;20214;-69
2023/02/26 10:42:05;;;;;;;1.30;1.20;;;-0.30;99.90;;;;;;4985073;28;20624;-69
2023/02/26 10:44:39;;;;;;;1.70;1.25;;;-0.30;99.90;;;;;;4987954;28;20215;-70
2023/02/26 10:47:15;;;;;;;1.95;1.40;;;-0.30;99.90;;;;;;4989478;28;20227;-69
2023/02/26 10:49:51;;;;;;;1.38;1.25;;;-0.30;99.90;;;;;;4989611;28;20210;-69
2023/02/26 10:52:21;;;;;;;1.33;1.23;;;-0.40;99.90;;;;;;4988478;28;20207;-69
2023/02/26 10:55:08;;;;;;;1.98;1.77;;;-0.40;99.90;;;;;;4989248;28;20215;-69
2023/02/26 10:57:37;;;;;;;1.88;1.60;;;-0.40;99.90;;;;;;4989340;28;20288;-69
2023/02/26 11:00:09;;;;;;;2.83;1.48;;;-0.30;99.90;;;;;;4983697;28;20230;-69
2023/02/26 11:02:41;;;;;;;1.85;1.30;;;-0.20;99.90;;;;;;4990064;28;20602;-69
2023/02/26 11:05:16;;;;;;;1.70;1.35;;;-0.10;99.90;;;;;;4981113;28;20215;-69
2023/02/26 11:07:45;;;;;;;1.75;1.60;;;0.00;99.90;;;;;;4988744;28;20227;-70
2023/02/26 11:10:17;;;;;;;1.60;1.50;;;0.20;99.90;;;;;;4971445;28;20210;-69
2023/02/26 11:12:46;;;;;;;1.35;1.25;;;0.40;99.90;;;;;;4979060;28;20207;-69
2023/02/26 11:15:14;;;;;;;2.00;1.70;;;0.50;99.90;;;;;;4988507;28;20203;-69
2023/02/26 11:17:43;;;;;;;2.95;1.70;;;0.70;99.90;;;;;;4988773;28;20223;-68
2023/02/26 11:20:17;;;;;;;1.23;1.13;;;0.80;99.90;;;;;;4988934;28;20231;-69
2023/02/26 11:22:47;;;;;;;2.28;1.45;;;0.70;99.90;;;;;;4987472;28;20208;-69
2023/02/26 11:25:17;;;;;;;1.52;1.30;;;0.60;99.90;;;;;;4988796;28;20215;-69
2023/02/26 11:27:44;;;;;;;3.25;1.60;;;0.60;99.90;;;;;;4988783;28;20219;-68
2023/02/26 11:30:17;;;;;;;1.50;1.33;;;0.60;99.90;;;;;;4988050;28;20203;-69
2023/02/26 11:32:49;;;;;;;2.83;1.63;;;0.80;99.90;;;;;;4980405;28;20204;-68
2023/02/26 11:35:19;;;;;;;1.40;1.20;;;1.00;99.90;;;;;;4974992;28;20199;-68
2023/02/26 11:37:48;;;;;;;1.75;1.65;;;1.10;99.90;;;;;;4980557;28;20718;-70
2023/02/26 11:40:17;;;;;;;2.65;1.30;;;1.10;99.90;;;;;;4979561;28;20219;-69
2023/02/26 11:42:51;;;;;;;4.78;1.60;;;1.00;99.90;;;;;;4984855;28;20233;-69
2023/02/26 11:45:20;;;;;;;1.20;1.10;;;0.70;99.90;;;;;;4987555;28;20207;-69
2023/02/26 11:47:53;;;;;;;1.90;1.35;;;0.50;99.90;;;;;;4982146;28;20251;-70
2023/02/26 11:50:24;;;;;;;1.63;1.50;;;0.40;99.90;;;;;;4988217;28;20212;-69
2023/02/26 11:52:56;;;;;;;2.47;1.40;;;0.40;99.90;;;;;;4987931;28;20214;-68
2023/02/26 11:55:28;;;;;;;1.33;1.23;;;0.40;99.90;;;;;;4988419;28;20231;-69
2023/02/26 11:57:56;;;;;;;1.40;1.25;;;0.50;99.90;;;;;;5021327;28;20246;-68
2023/02/26 12:00:29;;;;;;;2.35;1.73;;;0.50;99.90;;;;;;4988125;28;20249;-69
2023/02/26 12:03:00;;;;;;;1.30;1.15;;;0.60;99.90;;;;;;4984242;28;20752;-69
2023/02/26 12:05:27;;;;;;;1.50;1.40;;;0.60;99.90;;;;;;4979582;28;20732;-68
2023/02/26 12:07:54;;;;;;;1.50;1.40;;;0.60;99.90;;;;;;4982304;28;20321;-69
2023/02/26 12:10:27;;;;;;;1.40;1.20;;;0.80;99.90;;;;;;4986257;28;20212;-68
2023/02/26 12:13:05;;;;;;;1.88;1.40;;;0.90;99.90;;;;;;4985793;28;20223;-69
2023/02/26 12:15:37;;;;;;;1.60;1.30;;;0.90;99.90;;;;;;4986979;28;20212;-69
2023/02/26 12:18:27;;;;;;;1.48;1.38;;;0.80;99.90;;;;;;4987133;28;20230;-69
2023/02/26 12:21:05;;;;;;;1.35;1.25;;;0.60;99.90;;;;;;4986395;28;20228;-69
2023/02/26 12:24:08;;;;;;;1.55;1.40;;;0.50;99.90;;;;;;4986543;28;20241;-68
2023/02/26 12:26:39;;;;;;;1.48;1.38;;;0.40;99.90;;;;;;4982760;28;20230;-70
2023/02/26 12:29:32;;;;;;;1.38;1.27;;;0.40;99.90;;;;;;4979025;28;20288;-69
2023/02/26 12:32:14;;;;;;;1.70;1.60;;;0.30;99.90;;;;;;4987694;28;20428;-70
2023/02/26 12:34:58;;;;;;;1.63;1.50;;;0.40;99.90;;;;;;4988026;28;20199;-69
2023/02/26 12:37:41;;;;;;;1.33;1.00;;;0.40;99.90;;;;;;4982326;28;20234;-69
2023/02/26 12:40:22;;;;;;;2.20;1.38;;;0.40;99.90;;;;;;4989228;28;20300;-69
2023/02/26 12:42:59;;;;;;;1.50;1.35;;;0.40;99.90;;;;;;4978386;28;20203;-69
2023/02/26 12:45:42;;;;;;;1.80;1.70;;;0.30;99.90;;;;;;4981378;28;20629;-68
2023/02/26 12:48:31;;;;;;;1.65;1.27;;;0.30;99.90;;;;;;4986123;28;20678;-70
2023/02/26 12:51:06;;;;;;;1.30;1.20;;;0.30;99.90;;;;;;4986569;28;20229;-69
2023/02/26 12:53:56;;;;;;;2.28;1.40;;;0.30;99.90;;;;;;4981559;28;20210;-70
2023/02/26 12:56:47;;;;;;;1.73;1.40;;;0.40;99.90;;;;;;4980777;28;20211;-70
2023/02/26 12:59:26;;;;;;;1.85;1.23;;;0.50;99.90;;;;;;4986191;28;20215;-70
2023/02/26 13:02:13;;;;;;;1.50;1.40;;;0.60;99.90;;;;;;4986314;28;20298;-68
2023/02/26 13:05:12;;;;;;;1.20;1.08;;;0.70;99.90;;;;;;4986229;28;20214;-71
2023/02/26 13:08:06;;;;;;;1.92;1.52;;;0.80;99.90;;;;;;4982745;28;20637;-67